Meteorological Messages

Meteorological Service

SAGG31 UGTB 241830

Local validity Period 24 May 22:30 : 24 May 23:00
GG UGTBMAIL
241834 UGTBYMYX
SAGG31 UGTB 241830
METAR UGKO 241830Z 08014KT 9999 SCT028CB OVC050 18/13 Q1012 NOSIG=
METAR UGSB 241830Z 36004KT 300V050 9999 FEW011 BKN050 17/16 Q1011
NOSIG=
METAR UGTB 241830Z 09004KT 050V130 9999 -SHRA SCT041CB 15/13 Q1020
NOSIG=

SAGG41 UGTB 241830

Local validity Period 24 May 22:30 : 24 May 23:00
GG UGTBMAIL
241834 UGTBYMYX
SAGG41 UGTB 241830
METAR UGAM 241830Z AUTO 09012G23KT 060V140 //// ////// 19/08 Q1016=
METAR UGMS 241830Z AUTO 21004KT 160V240 //// ////// 12/06 Q1019=

FTGG31 UGTB 241700

Local validity Period 24 May 22:00 : 25 May 22:00
GG UGTBMAIL
241704 UGTBYMYX
FTGG31 UGTB 241700
TAF UGKO 241700Z 2418/2518 08035G51KT 9999 SCT070 TX25/2511Z
TN18/2422Z TEMPO 2418/2420 26010KT 5000 SHRA BKN020CB OVC050 TEMPO
2420/2424 08025G44KT TEMPO 2502/2508 CAVOK=
TAF UGSB 241700Z 2418/2518 14007KT 9999 SCT020 BKN040 TX21/2512Z
TN16/2502Z TEMPO 2418/2422 23010KT SHRA SCT010 BKN020CB PROB40
TEMPO 2418/2421 TS TEMPO 2422/2504 4000 RA BR BKN007 OVC025 BECMG
2506/2507 27010KT=
TAF UGTB 241700Z 2418/2518 VRB02KT 9999 BKN060 TX17/2512Z TN12/2502Z
TEMPO 2419/2501 VRB21KT TSRA SCT014 BKN020CB BECMG 2503/2505 15010KT
TEMPO 2506/2512 SHRA SCT009 BKN015CB TEMPO 2515/2518 TSRA BKN014CB=